sensor_id;sensor_type;location;lat;lon;timestamp;temperature;humidity
2465;DHT22;1244;54.326;10.074;2023-04-03T00:00:56;1.10;99.90
2465;DHT22;1244;54.326;10.074;2023-04-03T00:03:22;1.00;99.90
2465;DHT22;1244;54.326;10.074;2023-04-03T00:05:48;0.90;99.90
2465;DHT22;1244;54.326;10.074;2023-04-03T00:08:13;0.90;99.90
2465;DHT22;1244;54.326;10.074;2023-04-03T00:10:39;0.80;99.90
2465;DHT22;1244;54.326;10.074;2023-04-03T00:13:06;0.90;99.90
2465;DHT22;1244;54.326;10.074;2023-04-03T00:15:31;0.90;99.90
2465;DHT22;1244;54.326;10.074;2023-04-03T00:17:57;0.70;99.90
2465;DHT22;1244;54.326;10.074;2023-04-03T00:20:23;0.80;99.90
2465;DHT22;1244;54.326;10.074;2023-04-03T00:22:49;0.90;99.90
2465;DHT22;1244;54.326;10.074;2023-04-03T00:25:14;0.70;99.90
2465;DHT22;1244;54.326;10.074;2023-04-03T00:27:40;0.60;99.90
2465;DHT22;1244;54.326;10.074;2023-04-03T00:30:07;0.70;99.90
2465;DHT22;1244;54.326;10.074;2023-04-03T00:32:33;0.70;99.90
2465;DHT22;1244;54.326;10.074;2023-04-03T00:34:59;0.80;99.90
2465;DHT22;1244;54.326;10.074;2023-04-03T00:37:24;0.80;99.90
2465;DHT22;1244;54.326;10.074;2023-04-03T00:39:50;0.90;99.90
2465;DHT22;1244;54.326;10.074;2023-04-03T00:42:16;1.00;99.90
2465;DHT22;1244;54.326;10.074;2023-04-03T00:47:09;0.90;99.90
2465;DHT22;1244;54.326;10.074;2023-04-03T00:49:37;0.60;99.90
2465;DHT22;1244;54.326;10.074;2023-04-03T00:52:02;0.50;99.90
2465;DHT22;1244;54.326;10.074;2023-04-03T00:54:29;0.50;99.90
2465;DHT22;1244;54.326;10.074;2023-04-03T00:56:56;0.60;99.90
2465;DHT22;1244;54.326;10.074;2023-04-03T00:59:25;0.40;99.90
2465;DHT22;1244;54.326;10.074;2023-04-03T01:01:55;0.60;99.90
2465;DHT22;1244;54.326;10.074;2023-04-03T01:04:42;0.50;99.90
2465;DHT22;1244;54.326;10.074;2023-04-03T01:07:20;0.30;99.90
2465;DHT22;1244;54.326;10.074;2023-04-03T01:09:48;0.50;99.90
2465;DHT22;1244;54.326;10.074;2023-04-03T01:12:22;0.30;99.90
2465;DHT22;1244;54.326;10.074;2023-04-03T01:14:50;0.50;99.90
2465;DHT22;1244;54.326;10.074;2023-04-03T01:25:49;0.30;99.90
2465;DHT22;1244;54.326;10.074;2023-04-03T01:28:21;0.20;99.90
2465;DHT22;1244;54.326;10.074;2023-04-03T01:30:53;0.30;99.90
2465;DHT22;1244;54.326;10.074;2023-04-03T01:33:19;0.20;99.90
2465;DHT22;1244;54.326;10.074;2023-04-03T01:35:45;0.20;99.90
2465;DHT22;1244;54.326;10.074;2023-04-03T01:38:10;0.20;99.90
2465;DHT22;1244;54.326;10.074;2023-04-03T01:40:36;0.10;99.90
2465;DHT22;1244;54.326;10.074;2023-04-03T01:43:01;0.10;99.90
2465;DHT22;1244;54.326;10.074;2023-04-03T01:45:27;0.00;99.90
2465;DHT22;1244;54.326;10.074;2023-04-03T01:47:52;-0.10;99.90
2465;DHT22;1244;54.326;10.074;2023-04-03T01:50:18;-0.20;99.90
2465;DHT22;1244;54.326;10.074;2023-04-03T01:52:43;-0.20;99.90
2465;DHT22;1244;54.326;10.074;2023-04-03T01:55:09;-0.30;99.90
2465;DHT22;1244;54.326;10.074;2023-04-03T01:57:35;-0.10;99.90
2465;DHT22;1244;54.326;10.074;2023-04-03T02:00:00;-0.10;99.90
2465;DHT22;1244;54.326;10.074;2023-04-03T02:02:26;-0.10;99.90
2465;DHT22;1244;54.326;10.074;2023-04-03T02:04:51;-0.20;99.90
2465;DHT22;1244;54.326;10.074;2023-04-03T02:07:17;-0.10;99.90
2465;DHT22;1244;54.326;10.074;2023-04-03T02:09:42;-0.20;99.90
2465;DHT22;1244;54.326;10.074;2023-04-03T02:12:08;-0.20;99.90
2465;DHT22;1244;54.326;10.074;2023-04-03T02:14:33;-0.20;99.90
2465;DHT22;1244;54.326;10.074;2023-04-03T02:17:01;-0.30;99.90
2465;DHT22;1244;54.326;10.074;2023-04-03T02:19:30;-0.30;99.90
2465;DHT22;1244;54.326;10.074;2023-04-03T02:21:56;-0.30;99.90
2465;DHT22;1244;54.326;10.074;2023-04-03T02:24:24;-0.30;99.90
2465;DHT22;1244;54.326;10.074;2023-04-03T02:26:53;-0.40;99.90
2465;DHT22;1244;54.326;10.074;2023-04-03T02:29:21;-0.40;99.90
2465;DHT22;1244;54.326;10.074;2023-04-03T02:31:52;-0.30;99.90
2465;DHT22;1244;54.326;10.074;2023-04-03T02:34:24;-0.40;99.90
2465;DHT22;1244;54.326;10.074;2023-04-03T02:36:52;-0.40;99.90
2465;DHT22;1244;54.326;10.074;2023-04-03T02:39:21;-0.50;99.90
2465;DHT22;1244;54.326;10.074;2023-04-03T02:42:10;-0.60;99.90
2465;DHT22;1244;54.326;10.074;2023-04-03T02:44:36;-0.50;99.90
2465;DHT22;1244;54.326;10.074;2023-04-03T02:47:02;-0.30;99.90
2465;DHT22;1244;54.326;10.074;2023-04-03T02:49:36;-0.30;99.90
2465;DHT22;1244;54.326;10.074;2023-04-03T03:04:51;-0.50;99.90
2465;DHT22;1244;54.326;10.074;2023-04-03T03:07:17;-0.40;99.90
2465;DHT22;1244;54.326;10.074;2023-04-03T03:09:42;-0.50;99.90
2465;DHT22;1244;54.326;10.074;2023-04-03T03:12:10;-0.40;99.90
2465;DHT22;1244;54.326;10.074;2023-04-03T03:14:36;-0.60;99.90
2465;DHT22;1244;54.326;10.074;2023-04-03T03:24:54;-0.70;99.90
2465;DHT22;1244;54.326;10.074;2023-04-03T03:28:10;-0.70;99.90
2465;DHT22;1244;54.326;10.074;2023-04-03T03:31:02;-0.80;99.90
2465;DHT22;1244;54.326;10.074;2023-04-03T03:33:31;-0.80;99.90
2465;DHT22;1244;54.326;10.074;2023-04-03T03:36:15;-0.80;99.90
2465;DHT22;1244;54.326;10.074;2023-04-03T03:38:41;-0.80;99.90
2465;DHT22;1244;54.326;10.074;2023-04-03T03:44:11;-0.80;99.90
2465;DHT22;1244;54.326;10.074;2023-04-03T03:47:20;-0.80;99.90
2465;DHT22;1244;54.326;10.074;2023-04-03T03:50:01;-0.70;99.90
2465;DHT22;1244;54.326;10.074;2023-04-03T03:52:30;-0.80;99.90
2465;DHT22;1244;54.326;10.074;2023-04-03T03:54:59;-0.80;99.90
2465;DHT22;1244;54.326;10.074;2023-04-03T03:57:27;-0.80;99.90
2465;DHT22;1244;54.326;10.074;2023-04-03T03:59:54;-0.90;99.90
2465;DHT22;1244;54.326;10.074;2023-04-03T04:02:25;-0.90;99.90
2465;DHT22;1244;54.326;10.074;2023-04-03T04:04:55;-0.80;99.90
2465;DHT22;1244;54.326;10.074;2023-04-03T04:11:03;-0.80;99.90
2465;DHT22;1244;54.326;10.074;2023-04-03T04:14:06;-0.70;99.90
2465;DHT22;1244;54.326;10.074;2023-04-03T04:17:08;-0.80;99.90
2465;DHT22;1244;54.326;10.074;2023-04-03T04:19:49;-0.90;99.90
2465;DHT22;1244;54.326;10.074;2023-04-03T04:22:26;-0.90;99.90
2465;DHT22;1244;54.326;10.074;2023-04-03T04:24:55;-1.00;99.90
2465;DHT22;1244;54.326;10.074;2023-04-03T04:27:29;-1.10;99.90
2465;DHT22;1244;54.326;10.074;2023-04-03T04:30:00;-1.20;99.90
2465;DHT22;1244;54.326;10.074;2023-04-03T04:32:32;-1.20;99.90
2465;DHT22;1244;54.326;10.074;2023-04-03T04:34:57;-1.20;99.90
2465;DHT22;1244;54.326;10.074;2023-04-03T04:37:23;-1.30;99.90
2465;DHT22;1244;54.326;10.074;2023-04-03T04:39:52;-1.30;99.90
2465;DHT22;1244;54.326;10.074;2023-04-03T04:42:20;-1.30;99.90
2465;DHT22;1244;54.326;10.074;2023-04-03T04:44:46;-1.20;99.90
2465;DHT22;1244;54.326;10.074;2023-04-03T04:47:11;-1.20;99.90
2465;DHT22;1244;54.326;10.074;2023-04-03T04:50:06;-1.30;99.90
2465;DHT22;1244;54.326;10.074;2023-04-03T04:52:35;-1.30;99.90
2465;DHT22;1244;54.326;10.074;2023-04-03T04:55:04;-1.40;99.90
2465;DHT22;1244;54.326;10.074;2023-04-03T04:57:30;-1.30;99.90
2465;DHT22;1244;54.326;10.074;2023-04-03T04:59:55;-1.30;99.90
2465;DHT22;1244;54.326;10.074;2023-04-03T05:02:30;-1.40;99.90
2465;DHT22;1244;54.326;10.074;2023-04-03T05:04:59;-1.40;99.90
2465;DHT22;1244;54.326;10.074;2023-04-03T05:07:56;-1.30;99.90
2465;DHT22;1244;54.326;10.074;2023-04-03T05:10:34;-1.30;99.90
2465;DHT22;1244;54.326;10.074;2023-04-03T05:13:09;-1.40;99.90
2465;DHT22;1244;54.326;10.074;2023-04-03T05:15:35;-1.30;99.90
2465;DHT22;1244;54.326;10.074;2023-04-03T05:18:00;-1.30;99.90
2465;DHT22;1244;54.326;10.074;2023-04-03T05:20:26;-1.20;99.90
2465;DHT22;1244;54.326;10.074;2023-04-03T05:22:52;-1.10;99.90
2465;DHT22;1244;54.326;10.074;2023-04-03T05:25:17;-1.10;99.90
2465;DHT22;1244;54.326;10.074;2023-04-03T05:27:43;-1.20;99.90
2465;DHT22;1244;54.326;10.074;2023-04-03T05:30:45;-1.20;99.90
2465;DHT22;1244;54.326;10.074;2023-04-03T05:33:38;-1.20;99.90
2465;DHT22;1244;54.326;10.074;2023-04-03T05:36:14;-1.20;99.90
2465;DHT22;1244;54.326;10.074;2023-04-03T05:38:47;-1.20;99.90
2465;DHT22;1244;54.326;10.074;2023-04-03T05:41:37;-1.10;99.90
2465;DHT22;1244;54.326;10.074;2023-04-03T05:44:05;-0.90;99.90
2465;DHT22;1244;54.326;10.074;2023-04-03T05:46:31;-0.70;99.90
2465;DHT22;1244;54.326;10.074;2023-04-03T05:48:56;-0.50;99.90
2465;DHT22;1244;54.326;10.074;2023-04-03T05:51:43;-0.50;99.90
2465;DHT22;1244;54.326;10.074;2023-04-03T05:54:17;-0.40;99.90
2465;DHT22;1244;54.326;10.074;2023-04-03T05:56:44;-0.40;99.90
2465;DHT22;1244;54.326;10.074;2023-04-03T05:59:09;-0.30;99.90
2465;DHT22;1244;54.326;10.074;2023-04-03T06:01:35;-0.10;99.90
2465;DHT22;1244;54.326;10.074;2023-04-03T06:04:01;-0.10;99.90
2465;DHT22;1244;54.326;10.074;2023-04-03T06:09:14;0.20;99.90
2465;DHT22;1244;54.326;10.074;2023-04-03T06:11:41;0.30;99.90
2465;DHT22;1244;54.326;10.074;2023-04-03T06:14:07;0.30;99.90
2465;DHT22;1244;54.326;10.074;2023-04-03T06:16:33;0.30;99.90
2465;DHT22;1244;54.326;10.074;2023-04-03T06:18:59;0.60;99.90
2465;DHT22;1244;54.326;10.074;2023-04-03T06:21:24;0.90;99.90
2465;DHT22;1244;54.326;10.074;2023-04-03T06:23:50;1.10;99.90
2465;DHT22;1244;54.326;10.074;2023-04-03T06:26:16;1.20;99.90
2465;DHT22;1244;54.326;10.074;2023-04-03T06:28:42;1.30;99.90
2465;DHT22;1244;54.326;10.074;2023-04-03T06:31:08;2.20;99.90
2465;DHT22;1244;54.326;10.074;2023-04-03T06:33:34;2.50;99.90
2465;DHT22;1244;54.326;10.074;2023-04-03T06:36:02;2.60;99.90
2465;DHT22;1244;54.326;10.074;2023-04-03T06:38:28;2.50;99.90
2465;DHT22;1244;54.326;10.074;2023-04-03T06:40:55;2.30;99.90
2465;DHT22;1244;54.326;10.074;2023-04-03T06:43:21;2.30;99.90
2465;DHT22;1244;54.326;10.074;2023-04-03T06:45:47;2.50;99.90
2465;DHT22;1244;54.326;10.074;2023-04-03T06:48:13;2.70;99.90
2465;DHT22;1244;54.326;10.074;2023-04-03T06:50:38;3.00;99.90
2465;DHT22;1244;54.326;10.074;2023-04-03T06:53:04;3.40;99.90
2465;DHT22;1244;54.326;10.074;2023-04-03T06:55:31;3.50;99.90
2465;DHT22;1244;54.326;10.074;2023-04-03T06:57:57;3.60;99.90
2465;DHT22;1244;54.326;10.074;2023-04-03T07:00:22;3.40;99.90
2465;DHT22;1244;54.326;10.074;2023-04-03T07:02:48;3.30;99.90
2465;DHT22;1244;54.326;10.074;2023-04-03T07:05:14;3.30;99.90
2465;DHT22;1244;54.326;10.074;2023-04-03T07:07:39;3.30;99.90
2465;DHT22;1244;54.326;10.074;2023-04-03T07:10:06;3.20;99.90
2465;DHT22;1244;54.326;10.074;2023-04-03T07:12:32;3.40;99.90
2465;DHT22;1244;54.326;10.074;2023-04-03T07:14:58;3.50;99.90
2465;DHT22;1244;54.326;10.074;2023-04-03T07:17:23;3.60;99.90
2465;DHT22;1244;54.326;10.074;2023-04-03T07:19:50;3.90;99.90
2465;DHT22;1244;54.326;10.074;2023-04-03T07:22:16;3.90;99.90
2465;DHT22;1244;54.326;10.074;2023-04-03T07:24:42;4.10;99.90
2465;DHT22;1244;54.326;10.074;2023-04-03T07:27:07;4.20;99.90
2465;DHT22;1244;54.326;10.074;2023-04-03T07:29:34;4.40;99.90
2465;DHT22;1244;54.326;10.074;2023-04-03T07:32:00;4.50;99.90
2465;DHT22;1244;54.326;10.074;2023-04-03T07:34:26;4.70;99.90
2465;DHT22;1244;54.326;10.074;2023-04-03T07:36:52;4.70;99.90
2465;DHT22;1244;54.326;10.074;2023-04-03T07:39:18;4.80;99.90
2465;DHT22;1244;54.326;10.074;2023-04-03T07:41:44;4.90;99.90
2465;DHT22;1244;54.326;10.074;2023-04-03T07:44:09;5.10;99.90
2465;DHT22;1244;54.326;10.074;2023-04-03T07:46:36;5.00;99.90
2465;DHT22;1244;54.326;10.074;2023-04-03T07:49:01;4.90;99.90
2465;DHT22;1244;54.326;10.074;2023-04-03T07:51:27;5.10;99.90
2465;DHT22;1244;54.326;10.074;2023-04-03T07:53:53;5.10;99.90
2465;DHT22;1244;54.326;10.074;2023-04-03T07:56:19;5.50;99.90
2465;DHT22;1244;54.326;10.074;2023-04-03T08:34:21;6.40;99.90
2465;DHT22;1244;54.326;10.074;2023-04-03T08:36:47;6.50;99.90
2465;DHT22;1244;54.326;10.074;2023-04-03T08:39:13;6.90;99.90
2465;DHT22;1244;54.326;10.074;2023-04-03T08:41:43;6.80;99.90
2465;DHT22;1244;54.326;10.074;2023-04-03T08:52:11;7.50;99.90
2465;DHT22;1244;54.326;10.074;2023-04-03T08:54:49;7.70;99.90
2465;DHT22;1244;54.326;10.074;2023-04-03T08:57:17;8.00;99.90
2465;DHT22;1244;54.326;10.074;2023-04-03T08:59:45;7.80;99.90
2465;DHT22;1244;54.326;10.074;2023-04-03T09:02:31;8.10;99.90
2465;DHT22;1244;54.326;10.074;2023-04-03T09:04:59;7.70;99.90
2465;DHT22;1244;54.326;10.074;2023-04-03T09:07:41;8.30;99.90
2465;DHT22;1244;54.326;10.074;2023-04-03T09:10:12;8.10;99.90
2465;DHT22;1244;54.326;10.074;2023-04-03T09:12:40;8.10;99.90
2465;DHT22;1244;54.326;10.074;2023-04-03T09:15:14;7.80;99.90
2465;DHT22;1244;54.326;10.074;2023-04-03T09:20:25;8.80;99.90
2465;DHT22;1244;54.326;10.074;2023-04-03T09:22:52;9.30;99.90
2465;DHT22;1244;54.326;10.074;2023-04-03T09:25:33;9.20;99.90
2465;DHT22;1244;54.326;10.074;2023-04-03T09:28:03;9.20;99.90
2465;DHT22;1244;54.326;10.074;2023-04-03T09:30:35;9.40;99.90
2465;DHT22;1244;54.326;10.074;2023-04-03T09:33:01;9.00;99.90
2465;DHT22;1244;54.326;10.074;2023-04-03T09:35:28;8.90;99.90
2465;DHT22;1244;54.326;10.074;2023-04-03T09:42:55;10.50;99.90
2465;DHT22;1244;54.326;10.074;2023-04-03T09:45:34;10.40;99.40
2465;DHT22;1244;54.326;10.074;2023-04-03T09:53:42;11.00;98.60
2465;DHT22;1244;54.326;10.074;2023-04-03T09:58:45;11.30;97.30
2465;DHT22;1244;54.326;10.074;2023-04-03T10:04:12;11.90;96.90
2465;DHT22;1244;54.326;10.074;2023-04-03T10:06:50;12.20;92.20
2465;DHT22;1244;54.326;10.074;2023-04-03T10:09:23;11.80;92.20
2465;DHT22;1244;54.326;10.074;2023-04-03T10:15:10;12.50;96.00
2465;DHT22;1244;54.326;10.074;2023-04-03T10:17:48;12.50;95.40
2465;DHT22;1244;54.326;10.074;2023-04-03T10:23:16;13.20;95.80
2465;DHT22;1244;54.326;10.074;2023-04-03T10:26:15;13.50;95.70
2465;DHT22;1244;54.326;10.074;2023-04-03T10:28:54;13.40;94.80
2465;DHT22;1244;54.326;10.074;2023-04-03T10:31:28;13.00;93.90
2465;DHT22;1244;54.326;10.074;2023-04-03T11:04:59;13.40;99.90
2465;DHT22;1244;54.326;10.074;2023-04-03T11:30:27;11.60;99.90
2465;DHT22;1244;54.326;10.074;2023-04-03T11:33:05;10.60;91.40
2465;DHT22;1244;54.326;10.074;2023-04-03T11:35:34;12.00;90.40
2465;DHT22;1244;54.326;10.074;2023-04-03T11:40:35;15.20;99.90
2465;DHT22;1244;54.326;10.074;2023-04-03T12:26:43;17.40;99.90
2465;DHT22;1244;54.326;10.074;2023-04-03T12:29:29;17.60;97.60
2465;DHT22;1244;54.326;10.074;2023-04-03T12:48:57;17.60;98.20
2465;DHT22;1244;54.326;10.074;2023-04-03T12:56:27;17.70;98.10
2465;DHT22;1244;54.326;10.074;2023-04-03T12:58:57;17.60;96.00
2465;DHT22;1244;54.326;10.074;2023-04-03T13:01:37;17.50;94.20
2465;DHT22;1244;54.326;10.074;2023-04-03T13:04:02;17.20;93.70
2465;DHT22;1244;54.326;10.074;2023-04-03T13:06:36;17.10;93.30
2465;DHT22;1244;54.326;10.074;2023-04-03T13:09:03;17.70;97.40
2465;DHT22;1244;54.326;10.074;2023-04-03T13:14:22;18.00;96.20
2465;DHT22;1244;54.326;10.074;2023-04-03T13:17:02;18.10;97.50
2465;DHT22;1244;54.326;10.074;2023-04-03T13:19:29;17.70;98.60
2465;DHT22;1244;54.326;10.074;2023-04-03T13:22:24;17.90;95.40
2465;DHT22;1244;54.326;10.074;2023-04-03T13:37:27;18.90;98.60
2465;DHT22;1244;54.326;10.074;2023-04-03T14:20:31;17.40;98.50
2465;DHT22;1244;54.326;10.074;2023-04-03T14:27:54;18.20;99.00
2465;DHT22;1244;54.326;10.074;2023-04-03T15:04:55;13.00;93.00
2465;DHT22;1244;54.326;10.074;2023-04-03T15:07:22;12.70;90.70
2465;DHT22;1244;54.326;10.074;2023-04-03T15:09:49;12.00;68.20
2465;DHT22;1244;54.326;10.074;2023-04-03T15:12:15;11.80;72.10
2465;DHT22;1244;54.326;10.074;2023-04-03T15:14:40;11.50;72.00
2465;DHT22;1244;54.326;10.074;2023-04-03T15:17:15;11.00;74.60
2465;DHT22;1244;54.326;10.074;2023-04-03T15:19:42;11.20;76.90
2465;DHT22;1244;54.326;10.074;2023-04-03T15:22:16;10.90;77.50
2465;DHT22;1244;54.326;10.074;2023-04-03T15:24:43;11.00;76.60
2465;DHT22;1244;54.326;10.074;2023-04-03T15:27:09;10.90;76.90
2465;DHT22;1244;54.326;10.074;2023-04-03T15:29:35;10.20;77.40
2465;DHT22;1244;54.326;10.074;2023-04-03T15:32:01;10.30;79.10
2465;DHT22;1244;54.326;10.074;2023-04-03T15:34:27;10.50;81.20
2465;DHT22;1244;54.326;10.074;2023-04-03T15:36:53;10.10;77.90
2465;DHT22;1244;54.326;10.074;2023-04-03T15:39:19;9.90;82.00
2465;DHT22;1244;54.326;10.074;2023-04-03T15:41:45;10.10;81.00
2465;DHT22;1244;54.326;10.074;2023-04-03T15:44:11;9.90;79.50
2465;DHT22;1244;54.326;10.074;2023-04-03T15:46:38;9.90;83.30
2465;DHT22;1244;54.326;10.074;2023-04-03T15:49:04;10.00;81.40
2465;DHT22;1244;54.326;10.074;2023-04-03T15:51:31;10.10;82.50
2465;DHT22;1244;54.326;10.074;2023-04-03T15:53:56;9.90;81.60
2465;DHT22;1244;54.326;10.074;2023-04-03T15:56:22;10.00;83.60
2465;DHT22;1244;54.326;10.074;2023-04-03T15:58:47;9.60;83.50
2465;DHT22;1244;54.326;10.074;2023-04-03T16:01:13;9.30;81.00
2465;DHT22;1244;54.326;10.074;2023-04-03T16:03:40;9.30;82.40
2465;DHT22;1244;54.326;10.074;2023-04-03T16:06:11;9.20;84.70
2465;DHT22;1244;54.326;10.074;2023-04-03T16:08:37;9.30;82.60
2465;DHT22;1244;54.326;10.074;2023-04-03T16:11:03;9.30;81.60
2465;DHT22;1244;54.326;10.074;2023-04-03T16:13:28;9.00;81.90
2465;DHT22;1244;54.326;10.074;2023-04-03T16:15:54;8.80;83.50
2465;DHT22;1244;54.326;10.074;2023-04-03T16:18:20;8.90;86.00
2465;DHT22;1244;54.326;10.074;2023-04-03T16:20:46;8.80;83.80
2465;DHT22;1244;54.326;10.074;2023-04-03T16:23:11;8.90;87.20
2465;DHT22;1244;54.326;10.074;2023-04-03T16:25:37;8.90;87.60
2465;DHT22;1244;54.326;10.074;2023-04-03T16:28:03;8.80;84.20
2465;DHT22;1244;54.326;10.074;2023-04-03T16:30:28;8.60;86.80
2465;DHT22;1244;54.326;10.074;2023-04-03T16:32:54;8.20;84.80
2465;DHT22;1244;54.326;10.074;2023-04-03T16:35:21;8.30;85.30
2465;DHT22;1244;54.326;10.074;2023-04-03T16:37:46;8.30;88.00
2465;DHT22;1244;54.326;10.074;2023-04-03T16:40:12;8.40;88.30
2465;DHT22;1244;54.326;10.074;2023-04-03T16:42:38;8.40;90.00
2465;DHT22;1244;54.326;10.074;2023-04-03T16:45:04;8.40;86.40
2465;DHT22;1244;54.326;10.074;2023-04-03T16:47:31;8.10;88.40
2465;DHT22;1244;54.326;10.074;2023-04-03T16:49:56;8.30;88.00
2465;DHT22;1244;54.326;10.074;2023-04-03T16:52:22;8.20;87.70
2465;DHT22;1244;54.326;10.074;2023-04-03T16:54:47;8.20;87.40
2465;DHT22;1244;54.326;10.074;2023-04-03T16:57:13;8.20;89.70
2465;DHT22;1244;54.326;10.074;2023-04-03T16:59:38;8.10;90.90
2465;DHT22;1244;54.326;10.074;2023-04-03T17:02:04;8.10;89.10
2465;DHT22;1244;54.326;10.074;2023-04-03T17:04:29;8.20;91.00
2465;DHT22;1244;54.326;10.074;2023-04-03T17:06:55;8.20;91.40
2465;DHT22;1244;54.326;10.074;2023-04-03T17:09:21;8.10;91.30
2465;DHT22;1244;54.326;10.074;2023-04-03T17:11:48;8.00;90.60
2465;DHT22;1244;54.326;10.074;2023-04-03T17:14:13;7.80;90.60
2465;DHT22;1244;54.326;10.074;2023-04-03T17:16:39;7.80;92.20
2465;DHT22;1244;54.326;10.074;2023-04-03T17:19:05;7.70;91.40
2465;DHT22;1244;54.326;10.074;2023-04-03T17:21:32;7.70;91.90
2465;DHT22;1244;54.326;10.074;2023-04-03T17:24:03;7.30;92.40
2465;DHT22;1244;54.326;10.074;2023-04-03T17:26:32;7.40;93.80
2465;DHT22;1244;54.326;10.074;2023-04-03T17:28:58;7.20;91.70
2465;DHT22;1244;54.326;10.074;2023-04-03T17:31:23;7.30;92.50
2465;DHT22;1244;54.326;10.074;2023-04-03T17:33:49;7.40;93.20
2465;DHT22;1244;54.326;10.074;2023-04-03T17:36:14;7.50;93.30
2465;DHT22;1244;54.326;10.074;2023-04-03T17:38:40;7.30;91.90
2465;DHT22;1244;54.326;10.074;2023-04-03T17:41:08;7.30;92.90
2465;DHT22;1244;54.326;10.074;2023-04-03T17:43:34;7.20;94.30
2465;DHT22;1244;54.326;10.074;2023-04-03T17:46:01;7.10;94.10
2465;DHT22;1244;54.326;10.074;2023-04-03T17:48:29;7.10;94.80
2465;DHT22;1244;54.326;10.074;2023-04-03T17:50:55;7.20;94.60
2465;DHT22;1244;54.326;10.074;2023-04-03T17:53:20;7.00;94.50
2465;DHT22;1244;54.326;10.074;2023-04-03T17:55:46;7.00;94.40
2465;DHT22;1244;54.326;10.074;2023-04-03T17:58:11;7.00;95.10
2465;DHT22;1244;54.326;10.074;2023-04-03T18:00:37;6.80;95.20
2465;DHT22;1244;54.326;10.074;2023-04-03T18:03:03;6.80;95.60
2465;DHT22;1244;54.326;10.074;2023-04-03T18:05:29;6.70;95.70
2465;DHT22;1244;54.326;10.074;2023-04-03T18:07:56;6.50;95.20
2465;DHT22;1244;54.326;10.074;2023-04-03T18:10:22;6.50;95.90
2465;DHT22;1244;54.326;10.074;2023-04-03T18:12:48;6.40;96.50
2465;DHT22;1244;54.326;10.074;2023-04-03T18:15:16;6.50;97.10
2465;DHT22;1244;54.326;10.074;2023-04-03T18:17:42;6.30;97.50
2465;DHT22;1244;54.326;10.074;2023-04-03T18:20:08;6.30;97.30
2465;DHT22;1244;54.326;10.074;2023-04-03T18:22:35;6.20;97.80
2465;DHT22;1244;54.326;10.074;2023-04-03T18:25:01;6.10;98.20
2465;DHT22;1244;54.326;10.074;2023-04-03T18:27:27;6.00;97.80
2465;DHT22;1244;54.326;10.074;2023-04-03T18:29:57;6.00;98.30
2465;DHT22;1244;54.326;10.074;2023-04-03T18:32:23;5.90;98.10
2465;DHT22;1244;54.326;10.074;2023-04-03T18:34:48;5.90;99.40
2465;DHT22;1244;54.326;10.074;2023-04-03T18:37:15;5.80;98.60
2465;DHT22;1244;54.326;10.074;2023-04-03T18:39:41;5.80;99.20
2465;DHT22;1244;54.326;10.074;2023-04-03T18:42:15;5.70;99.30
2465;DHT22;1244;54.326;10.074;2023-04-03T18:44:42;5.60;99.20
2465;DHT22;1244;54.326;10.074;2023-04-03T18:47:08;5.50;98.90
2465;DHT22;1244;54.326;10.074;2023-04-03T18:49:36;5.40;99.40
2465;DHT22;1244;54.326;10.074;2023-04-03T18:52:02;5.50;99.50
2465;DHT22;1244;54.326;10.074;2023-04-03T18:54:28;5.40;99.80
2465;DHT22;1244;54.326;10.074;2023-04-03T18:56:54;5.30;99.90
2465;DHT22;1244;54.326;10.074;2023-04-03T18:59:19;5.30;99.90
2465;DHT22;1244;54.326;10.074;2023-04-03T19:01:46;5.40;99.90
2465;DHT22;1244;54.326;10.074;2023-04-03T19:04:11;5.30;99.70
2465;DHT22;1244;54.326;10.074;2023-04-03T19:06:37;5.30;99.80
2465;DHT22;1244;54.326;10.074;2023-04-03T19:09:04;5.00;99.80
2465;DHT22;1244;54.326;10.074;2023-04-03T19:11:31;5.00;99.90
2465;DHT22;1244;54.326;10.074;2023-04-03T19:13:57;5.10;99.90
2465;DHT22;1244;54.326;10.074;2023-04-03T19:16:23;4.90;99.90
2465;DHT22;1244;54.326;10.074;2023-04-03T19:18:49;4.70;99.90
2465;DHT22;1244;54.326;10.074;2023-04-03T19:21:14;4.80;99.90
2465;DHT22;1244;54.326;10.074;2023-04-03T19:23:40;4.80;99.90
2465;DHT22;1244;54.326;10.074;2023-04-03T19:26:10;4.70;99.90
2465;DHT22;1244;54.326;10.074;2023-04-03T19:28:36;4.50;99.90
2465;DHT22;1244;54.326;10.074;2023-04-03T19:31:09;4.50;99.90
2465;DHT22;1244;54.326;10.074;2023-04-03T19:33:35;4.60;99.90
2465;DHT22;1244;54.326;10.074;2023-04-03T19:36:04;4.60;99.90
2465;DHT22;1244;54.326;10.074;2023-04-03T19:38:29;4.60;99.90
2465;DHT22;1244;54.326;10.074;2023-04-03T19:40:55;4.60;99.90
2465;DHT22;1244;54.326;10.074;2023-04-03T19:43:21;4.50;99.90
2465;DHT22;1244;54.326;10.074;2023-04-03T19:45:46;4.50;99.90
2465;DHT22;1244;54.326;10.074;2023-04-03T19:48:12;4.50;99.90
2465;DHT22;1244;54.326;10.074;2023-04-03T19:50:37;4.40;99.90
2465;DHT22;1244;54.326;10.074;2023-04-03T19:53:03;4.30;99.90
2465;DHT22;1244;54.326;10.074;2023-04-03T19:55:29;4.10;99.90
2465;DHT22;1244;54.326;10.074;2023-04-03T19:57:58;4.10;99.90
2465;DHT22;1244;54.326;10.074;2023-04-03T20:00:25;4.10;99.90
2465;DHT22;1244;54.326;10.074;2023-04-03T20:02:51;4.20;99.90
2465;DHT22;1244;54.326;10.074;2023-04-03T20:05:16;4.00;99.90
2465;DHT22;1244;54.326;10.074;2023-04-03T20:07:42;3.90;99.90
2465;DHT22;1244;54.326;10.074;2023-04-03T20:10:08;3.90;99.90
2465;DHT22;1244;54.326;10.074;2023-04-03T20:12:34;4.10;99.90
2465;DHT22;1244;54.326;10.074;2023-04-03T20:15:02;4.00;99.90
2465;DHT22;1244;54.326;10.074;2023-04-03T20:17:31;4.00;99.90
2465;DHT22;1244;54.326;10.074;2023-04-03T20:19:57;4.20;99.90
2465;DHT22;1244;54.326;10.074;2023-04-03T20:22:26;3.80;99.90
2465;DHT22;1244;54.326;10.074;2023-04-03T20:24:52;4.20;99.90
2465;DHT22;1244;54.326;10.074;2023-04-03T20:27:18;4.00;99.90
2465;DHT22;1244;54.326;10.074;2023-04-03T20:29:43;4.00;99.90
2465;DHT22;1244;54.326;10.074;2023-04-03T20:32:09;3.80;99.90
2465;DHT22;1244;54.326;10.074;2023-04-03T20:34:36;3.60;99.90
2465;DHT22;1244;54.326;10.074;2023-04-03T20:37:02;3.50;99.90
2465;DHT22;1244;54.326;10.074;2023-04-03T20:39:28;3.60;99.90
2465;DHT22;1244;54.326;10.074;2023-04-03T20:41:54;3.60;99.90
2465;DHT22;1244;54.326;10.074;2023-04-03T20:44:19;3.40;99.90
2465;DHT22;1244;54.326;10.074;2023-04-03T20:46:46;3.20;99.90
2465;DHT22;1244;54.326;10.074;2023-04-03T20:49:12;3.40;99.90
2465;DHT22;1244;54.326;10.074;2023-04-03T20:51:37;3.40;99.90
2465;DHT22;1244;54.326;10.074;2023-04-03T20:54:03;3.30;99.90
2465;DHT22;1244;54.326;10.074;2023-04-03T20:56:30;3.30;99.90
2465;DHT22;1244;54.326;10.074;2023-04-03T20:58:59;3.30;99.90
2465;DHT22;1244;54.326;10.074;2023-04-03T21:01:30;3.10;99.90
2465;DHT22;1244;54.326;10.074;2023-04-03T21:04:00;2.80;99.90
2465;DHT22;1244;54.326;10.074;2023-04-03T21:20:43;3.00;99.90
2465;DHT22;1244;54.326;10.074;2023-04-03T21:23:11;2.70;99.90
2465;DHT22;1244;54.326;10.074;2023-04-03T21:25:37;2.30;99.90
2465;DHT22;1244;54.326;10.074;2023-04-03T21:28:03;2.40;99.90
2465;DHT22;1244;54.326;10.074;2023-04-03T21:30:28;2.50;99.90
2465;DHT22;1244;54.326;10.074;2023-04-03T21:32:54;2.50;99.90
2465;DHT22;1244;54.326;10.074;2023-04-03T21:35:19;2.20;99.90
2465;DHT22;1244;54.326;10.074;2023-04-03T21:37:44;2.10;99.90
2465;DHT22;1244;54.326;10.074;2023-04-03T21:40:10;2.10;99.90
2465;DHT22;1244;54.326;10.074;2023-04-03T21:42:36;2.10;99.90
2465;DHT22;1244;54.326;10.074;2023-04-03T21:45:02;2.10;99.90